Time;durP1;ratioP1;P1;durP2;ratioP2;P2;SDS_P1;SDS_P2;PMS_P1;PMS_P2;Temp;Humidity;BMP_temperature;BMP_pressure;BME280_temperature;BME280_humidity;BME280_pressure;Samples;Min_cycle;Max_cycle;Signal;HPM_P1;HPM_P2
2022/04/26 03:37:46;;;;;;;8.40;7.60;;;5.70;99.90;;;;;;4955623;28;20492;-68
2022/04/26 03:40:34;;;;;;;9.70;7.97;;;5.70;99.90;;;;;;5050344;28;20477;-68
2022/04/26 03:43:24;;;;;;;10.40;8.50;;;5.60;99.90;;;;;;5045108;28;20474;-68
2022/04/26 03:46:12;;;;;;;8.30;7.43;;;5.60;99.90;;;;;;5048693;28;20465;-67
2022/04/26 03:49:00;;;;;;;11.00;7.93;;;5.60;99.90;;;;;;5053588;28;20812;-68
2022/04/26 03:51:48;;;;;;;8.53;7.63;;;5.60;99.90;;;;;;5049644;28;20462;-68
2022/04/26 03:54:36;;;;;;;9.30;7.73;;;5.60;99.90;;;;;;5050999;28;20911;-68
2022/04/26 03:57:25;;;;;;;10.07;7.80;;;5.60;99.90;;;;;;5048221;28;20545;-67
2022/04/26 04:00:16;;;;;;;10.30;8.10;;;5.60;99.90;;;;;;5050472;28;20482;-68
2022/04/26 04:03:06;;;;;;;8.60;7.33;;;5.50;99.90;;;;;;5050835;28;20905;-69
2022/04/26 04:05:55;;;;;;;9.13;7.53;;;5.50;99.90;;;;;;5043845;28;20980;-67
2022/04/26 04:08:43;;;;;;;11.00;7.43;;;5.50;99.90;;;;;;5042997;28;20491;-68
2022/04/26 04:11:31;;;;;;;8.13;7.30;;;5.50;99.90;;;;;;5045613;28;20479;-67
2022/04/26 04:14:19;;;;;;;10.43;8.20;;;5.50;99.90;;;;;;5048481;28;20481;-66
2022/04/26 04:17:09;;;;;;;9.37;7.63;;;5.40;99.90;;;;;;5051631;28;20857;-66
2022/04/26 04:19:58;;;;;;;9.90;7.20;;;5.40;99.90;;;;;;5045020;28;21157;-66
2022/04/26 04:22:48;;;;;;;8.63;7.00;;;5.40;99.90;;;;;;5047666;28;20580;-66
2022/04/26 04:25:36;;;;;;;9.93;7.37;;;5.40;99.90;;;;;;5053412;28;20589;-66
2022/04/26 04:28:24;;;;;;;10.37;7.80;;;5.40;99.90;;;;;;5058763;28;20544;-68
2022/04/26 04:31:12;;;;;;;8.87;7.97;;;5.40;99.90;;;;;;5053538;28;20545;-66
2022/04/26 04:34:02;;;;;;;10.13;8.37;;;5.40;99.90;;;;;;5049442;28;21105;-66
2022/04/26 04:36:51;;;;;;;9.13;7.97;;;5.40;99.90;;;;;;5052198;28;20532;-67
2022/04/26 04:39:39;;;;;;;9.87;7.90;;;5.40;99.90;;;;;;5053530;28;20621;-67
2022/04/26 04:42:27;;;;;;;10.83;8.07;;;5.40;99.90;;;;;;5042549;28;20611;-67
2022/04/26 04:45:15;;;;;;;10.60;7.77;;;5.40;99.90;;;;;;5053374;28;20521;-67
2022/04/26 04:48:05;;;;;;;10.50;7.77;;;5.40;99.90;;;;;;5055868;28;21687;-67
2022/04/26 04:50:54;;;;;;;7.97;7.17;;;5.50;99.90;;;;;;5053628;28;20632;-67
2022/04/26 04:53:42;;;;;;;8.63;7.37;;;5.50;99.90;;;;;;5053017;28;20510;-67
2022/04/26 04:56:31;;;;;;;8.23;7.30;;;5.50;99.90;;;;;;5047244;28;20821;-67
2022/04/26 04:59:21;;;;;;;10.20;8.80;;;5.50;99.90;;;;;;5044747;28;20570;-67
2022/04/26 05:02:09;;;;;;;9.53;8.07;;;5.60;99.90;;;;;;5041158;28;20473;-66
2022/04/26 05:04:58;;;;;;;8.27;7.43;;;5.60;99.90;;;;;;5040368;28;21060;-66
2022/04/26 05:07:50;;;;;;;9.47;7.53;;;5.70;99.90;;;;;;5051242;28;20456;-66
2022/04/26 05:10:38;;;;;;;11.23;8.43;;;5.70;99.90;;;;;;5038369;28;20481;-66
2022/04/26 05:13:27;;;;;;;8.43;7.50;;;5.80;99.90;;;;;;5041403;28;20636;-66
2022/04/26 05:16:15;;;;;;;8.87;7.97;;;5.80;99.90;;;;;;5045380;28;20981;-66
2022/04/26 05:19:03;;;;;;;10.33;7.77;;;5.90;99.90;;;;;;5050218;28;20463;-66
2022/04/26 05:21:51;;;;;;;11.00;8.97;;;6.00;99.90;;;;;;5050755;28;20577;-66
2022/04/26 05:24:56;;;;;;;8.90;8.00;;;6.00;99.90;;;;;;5025073;28;20488;-66
2022/04/26 05:27:44;;;;;;;12.80;8.33;;;6.10;99.90;;;;;;5048565;28;20545;-67
2022/04/26 05:30:33;;;;;;;11.00;7.90;;;6.20;99.90;;;;;;5044642;28;20502;-66
2022/04/26 05:33:21;;;;;;;9.67;8.07;;;6.20;99.90;;;;;;5049824;28;21088;-66
2022/04/26 05:36:10;;;;;;;10.83;7.93;;;6.30;99.90;;;;;;5048779;28;20933;-66
2022/04/26 05:38:59;;;;;;;9.40;8.50;;;6.40;99.90;;;;;;5047785;28;20457;-66
2022/04/26 05:41:49;;;;;;;10.50;8.23;;;6.40;99.90;;;;;;5047724;28;20582;-66
2022/04/26 05:44:38;;;;;;;10.80;8.53;;;6.50;99.90;;;;;;5038117;28;20481;-66
2022/04/26 05:47:26;;;;;;;9.47;7.53;;;6.60;99.90;;;;;;5044834;28;20458;-66
2022/04/26 05:50:15;;;;;;;10.30;8.33;;;6.70;99.90;;;;;;5044246;28;20642;-66
2022/04/26 05:53:03;;;;;;;10.67;9.13;;;6.80;99.90;;;;;;5039048;28;20517;-66
2022/04/26 05:55:51;;;;;;;10.27;8.47;;;6.90;99.90;;;;;;5041902;28;20463;-66
2022/04/26 05:58:40;;;;;;;11.90;8.97;;;7.00;99.90;;;;;;5045066;28;20549;-66
2022/04/26 06:01:28;;;;;;;10.00;8.33;;;7.10;99.90;;;;;;5045514;28;20544;-66
2022/04/26 06:04:17;;;;;;;9.80;8.57;;;7.20;99.90;;;;;;5043602;28;20478;-66
2022/04/26 06:07:06;;;;;;;10.63;9.00;;;7.20;99.90;;;;;;5044966;28;20504;-67
2022/04/26 06:09:54;;;;;;;11.50;8.70;;;7.30;99.90;;;;;;5039628;28;20492;-66
2022/04/26 06:12:44;;;;;;;11.63;9.50;;;7.40;99.90;;;;;;5043238;28;20553;-67
2022/04/26 06:15:34;;;;;;;9.20;7.80;;;7.40;99.90;;;;;;5043363;28;20446;-66
2022/04/26 06:18:22;;;;;;;9.47;8.47;;;7.40;99.90;;;;;;5041543;28;20529;-66
2022/04/26 06:21:10;;;;;;;11.60;8.77;;;7.50;99.90;;;;;;5043856;28;20490;-66
2022/04/26 06:23:59;;;;;;;10.80;8.80;;;7.60;99.90;;;;;;5041577;28;21030;-66
2022/04/26 06:26:47;;;;;;;11.87;9.17;;;7.70;99.90;;;;;;5043271;28;20525;-66
2022/04/26 06:29:35;;;;;;;9.80;8.80;;;7.80;99.90;;;;;;5044124;28;20540;-66
2022/04/26 06:32:25;;;;;;;12.27;8.73;;;8.00;99.90;;;;;;5043486;28;20581;-67
2022/04/26 06:35:13;;;;;;;10.47;8.33;;;8.20;99.90;;;;;;5041800;28;20458;-66
2022/04/26 06:38:01;;;;;;;9.50;8.50;;;8.30;99.90;;;;;;5041993;28;21400;-66
2022/04/26 06:40:51;;;;;;;11.00;7.97;;;8.40;99.90;;;;;;5040063;28;20463;-66
2022/04/26 06:43:40;;;;;;;8.80;7.90;;;8.60;99.90;;;;;;5043601;28;20498;-67
2022/04/26 06:46:28;;;;;;;8.33;6.93;;;8.70;99.90;;;;;;5047567;28;20554;-66
2022/04/26 06:49:17;;;;;;;7.47;6.63;;;8.80;99.90;;;;;;5047989;28;20445;-67
2022/04/26 06:52:06;;;;;;;9.20;7.73;;;9.00;99.90;;;;;;5042417;28;20561;-67
2022/04/26 06:54:54;;;;;;;8.10;7.30;;;9.10;99.90;;;;;;5041603;28;21044;-66
2022/04/26 06:57:42;;;;;;;8.00;6.90;;;9.20;99.90;;;;;;5040428;28;20446;-66
2022/04/26 07:00:30;;;;;;;7.80;7.00;;;9.30;99.90;;;;;;5043663;28;20569;-66
2022/04/26 07:03:19;;;;;;;6.73;6.13;;;9.40;99.90;;;;;;5037970;28;20509;-66
2022/04/26 07:06:09;;;;;;;7.77;7.00;;;9.50;99.90;;;;;;5041730;28;20989;-66
2022/04/26 07:08:57;;;;;;;7.33;6.57;;;9.60;99.90;;;;;;5040638;28;21984;-66
2022/04/26 07:11:46;;;;;;;6.90;6.17;;;9.70;99.90;;;;;;5037510;28;20458;-68
2022/04/26 07:14:34;;;;;;;6.70;6.00;;;9.70;99.90;;;;;;5040016;28;20505;-67
2022/04/26 07:17:23;;;;;;;7.00;5.97;;;9.80;99.90;;;;;;5035622;28;20458;-67
2022/04/26 07:20:12;;;;;;;5.77;5.20;;;10.00;99.90;;;;;;5047395;28;20497;-67
2022/04/26 07:23:01;;;;;;;6.60;5.90;;;10.00;99.90;;;;;;5042124;28;20482;-67
2022/04/26 07:25:51;;;;;;;6.43;5.40;;;10.20;99.90;;;;;;5042712;28;21003;-67
2022/04/26 07:28:40;;;;;;;6.57;5.87;;;10.20;99.90;;;;;;5044803;28;20944;-67
2022/04/26 07:31:29;;;;;;;6.30;5.70;;;10.30;99.90;;;;;;5049446;28;20461;-67
2022/04/26 07:34:24;;;;;;;6.37;5.63;;;10.40;99.90;;;;;;5045406;28;20478;-67
2022/04/26 07:37:12;;;;;;;5.97;5.40;;;10.50;99.90;;;;;;5044799;28;20455;-67
2022/04/26 07:40:03;;;;;;;5.47;4.97;;;10.70;99.90;;;;;;5044313;28;20470;-67
2022/04/26 07:42:52;;;;;;;7.23;5.77;;;10.80;99.90;;;;;;5041048;28;20486;-66
2022/04/26 07:45:41;;;;;;;9.17;4.97;;;10.90;99.90;;;;;;5045975;28;20453;-67
2022/04/26 07:48:30;;;;;;;6.27;5.60;;;11.00;99.90;;;;;;5042950;28;20449;-67
2022/04/26 07:51:18;;;;;;;5.80;5.30;;;11.10;99.90;;;;;;5044971;28;20544;-67
2022/04/26 07:54:07;;;;;;;6.70;5.27;;;11.30;99.90;;;;;;5037749;28;20459;-67
2022/04/26 07:56:59;;;;;;;6.50;5.90;;;11.40;99.90;;;;;;5039327;28;20972;-67
2022/04/26 07:59:47;;;;;;;6.90;6.17;;;11.40;99.90;;;;;;5043760;28;20997;-67
2022/04/26 08:02:36;;;;;;;6.53;5.73;;;11.50;99.90;;;;;;5050212;28;20583;-68
2022/04/26 08:05:24;;;;;;;5.60;5.10;;;11.60;99.90;;;;;;5048201;28;20536;-67
2022/04/26 08:08:13;;;;;;;5.90;5.40;;;11.60;99.90;;;;;;5053987;28;20456;-68
2022/04/26 08:11:01;;;;;;;5.67;5.03;;;11.70;99.90;;;;;;5053288;28;20457;-68
2022/04/26 08:13:51;;;;;;;5.40;4.90;;;11.70;99.90;;;;;;5047772;28;21019;-68
2022/04/26 08:16:39;;;;;;;6.60;5.33;;;11.80;99.90;;;;;;5052489;28;20461;-66
2022/04/26 08:19:27;;;;;;;6.13;5.53;;;11.90;99.90;;;;;;5043777;28;20476;-66
2022/04/26 08:22:15;;;;;;;6.07;5.10;;;12.00;99.90;;;;;;5052018;28;20477;-68
2022/04/26 08:28:11;;;;;;;5.63;5.03;;;12.20;99.90;;;;;;5049526;28;20445;-67
2022/04/26 08:31:01;;;;;;;7.00;5.43;;;12.30;99.90;;;;;;5051103;28;20898;-67
2022/04/26 08:33:49;;;;;;;5.70;5.10;;;12.40;99.90;;;;;;5045681;28;20551;-67
2022/04/26 08:36:37;;;;;;;6.47;5.40;;;12.50;99.90;;;;;;5053509;28;20482;-67
2022/04/26 08:39:25;;;;;;;4.87;4.47;;;12.60;99.90;;;;;;5053593;28;20466;-66
2022/04/26 08:42:14;;;;;;;5.20;4.80;;;12.60;99.90;;;;;;5042116;28;20512;-67
2022/04/26 08:45:02;;;;;;;5.80;5.20;;;12.60;99.90;;;;;;5049091;28;20490;-67
2022/04/26 08:51:03;;;;;;;5.83;4.77;;;12.80;99.90;;;;;;5051196;28;20509;-67
2022/04/26 08:53:51;;;;;;;4.90;4.50;;;12.90;99.90;;;;;;5052210;28;20478;-67
2022/04/26 08:56:39;;;;;;;5.10;4.60;;;12.80;99.90;;;;;;5050465;28;20493;-67
2022/04/26 08:59:27;;;;;;;5.33;4.73;;;12.90;99.90;;;;;;5051706;28;20484;-67
2022/04/26 09:02:18;;;;;;;5.50;5.00;;;13.00;99.90;;;;;;5047363;28;20458;-67
2022/04/26 09:05:13;;;;;;;4.70;4.30;;;13.10;99.90;;;;;;5046327;28;20477;-67
2022/04/26 09:08:19;;;;;;;5.30;4.87;;;13.20;99.90;;;;;;5045401;28;20450;-68
2022/04/26 09:11:22;;;;;;;5.40;4.90;;;13.30;99.90;;;;;;5048460;28;21150;-67
2022/04/26 09:14:28;;;;;;;6.87;4.83;;;13.30;99.90;;;;;;5046659;28;20873;-67
2022/04/26 09:17:17;;;;;;;5.30;4.80;;;13.40;99.90;;;;;;5047923;28;20593;-67
2022/04/26 09:20:08;;;;;;;5.77;5.20;;;13.50;99.90;;;;;;5048613;28;21017;-68
2022/04/26 09:23:00;;;;;;;4.97;4.57;;;13.60;99.90;;;;;;5048635;28;20498;-67
2022/04/26 09:25:51;;;;;;;6.47;4.60;;;13.60;99.90;;;;;;5041827;28;20454;-67
2022/04/26 09:28:45;;;;;;;5.23;4.80;;;13.70;99.90;;;;;;5050467;28;21284;-67
2022/04/26 09:31:35;;;;;;;5.27;4.77;;;13.70;99.90;;;;;;5049993;28;20454;-67
2022/04/26 09:34:38;;;;;;;6.30;4.70;;;13.80;99.90;;;;;;5043786;28;20537;-67
2022/04/26 09:37:29;;;;;;;4.10;3.80;;;13.80;99.90;;;;;;5045836;28;20460;-67
2022/04/26 09:40:20;;;;;;;5.50;4.37;;;13.80;99.90;;;;;;5042247;28;20477;-67
2022/04/26 09:43:14;;;;;;;5.03;4.50;;;13.90;99.90;;;;;;5040832;28;20481;-67
2022/04/26 09:46:04;;;;;;;4.90;4.40;;;13.90;99.90;;;;;;5044744;28;20473;-67
2022/04/26 09:48:54;;;;;;;5.03;4.50;;;14.00;99.90;;;;;;5048269;28;20447;-66
2022/04/26 09:51:43;;;;;;;5.27;4.77;;;14.10;99.90;;;;;;5044431;28;20460;-67
2022/04/26 09:54:31;;;;;;;4.90;4.50;;;14.10;99.90;;;;;;5039218;28;21240;-67
2022/04/26 09:57:23;;;;;;;5.00;4.53;;;14.10;99.90;;;;;;5047031;28;20834;-67
2022/04/26 10:00:27;;;;;;;5.90;4.60;;;14.20;99.90;;;;;;5047253;28;20534;-67
2022/04/26 10:03:17;;;;;;;4.77;4.33;;;14.20;99.90;;;;;;5041714;28;20491;-67
2022/04/26 10:06:08;;;;;;;5.93;5.30;;;14.40;99.90;;;;;;5042135;28;20480;-67
2022/04/26 10:08:57;;;;;;;5.63;5.13;;;14.50;99.90;;;;;;5042912;28;20458;-67
2022/04/26 10:11:46;;;;;;;4.70;4.30;;;14.50;99.90;;;;;;5049072;28;20465;-67
2022/04/26 10:14:35;;;;;;;6.03;5.37;;;14.50;99.90;;;;;;5045907;28;20607;-67
2022/04/26 10:17:24;;;;;;;6.00;5.50;;;14.50;99.90;;;;;;5052531;28;20540;-68
2022/04/26 10:20:40;;;;;;;5.60;5.10;;;14.60;99.90;;;;;;5045587;28;20473;-67
2022/04/26 10:23:28;;;;;;;5.20;4.77;;;14.80;99.90;;;;;;5041979;28;20473;-68
2022/04/26 10:26:27;;;;;;;6.00;5.40;;;15.00;99.90;;;;;;5048580;28;20462;-68
2022/04/26 10:29:22;;;;;;;5.93;5.43;;;15.10;99.90;;;;;;5043031;28;21115;-68
2022/04/26 10:32:12;;;;;;;5.60;5.00;;;15.10;99.90;;;;;;5040177;28;20513;-68
2022/04/26 10:35:31;;;;;;;5.57;5.07;;;15.00;99.90;;;;;;5048130;28;20450;-68
2022/04/26 10:38:20;;;;;;;5.70;5.20;;;15.10;99.90;;;;;;5044334;28;20456;-68
2022/04/26 10:41:09;;;;;;;6.00;5.27;;;15.30;99.90;;;;;;5050025;28;20527;-67
2022/04/26 10:44:26;;;;;;;5.80;5.30;;;15.30;99.90;;;;;;5042767;28;20619;-68
2022/04/26 10:47:39;;;;;;;5.53;5.03;;;15.30;99.90;;;;;;5043816;28;20486;-68
2022/04/26 10:50:32;;;;;;;5.67;5.17;;;15.20;99.90;;;;;;5047644;28;20485;-68
2022/04/26 10:53:45;;;;;;;6.10;5.50;;;15.20;99.90;;;;;;5041012;28;20614;-68
2022/04/26 10:56:34;;;;;;;5.63;5.13;;;15.20;99.90;;;;;;5046675;28;20503;-68
2022/04/26 10:59:22;;;;;;;6.13;5.63;;;15.30;99.90;;;;;;5040606;28;20982;-68
2022/04/26 11:02:13;;;;;;;5.57;5.13;;;15.30;99.90;;;;;;5042338;28;21072;-68
2022/04/26 11:05:10;;;;;;;5.73;5.20;;;15.20;99.90;;;;;;5043065;28;23045;-68
2022/04/26 11:07:58;;;;;;;6.63;5.13;;;15.30;99.90;;;;;;5046821;28;20495;-68
2022/04/26 11:11:03;;;;;;;6.33;5.73;;;15.30;99.90;;;;;;5042783;28;20490;-68
2022/04/26 11:14:03;;;;;;;6.23;5.37;;;15.40;99.90;;;;;;5038686;28;20489;-68
2022/04/26 11:16:55;;;;;;;5.10;4.60;;;15.60;99.90;;;;;;5041405;28;20463;-68
2022/04/26 11:19:49;;;;;;;7.63;5.27;;;15.80;99.90;;;;;;5046429;28;20485;-68
2022/04/26 11:22:46;;;;;;;6.83;5.20;;;15.90;99.90;;;;;;5036990;28;20484;-69
2022/04/26 11:28:40;;;;;;;6.23;5.73;;;16.10;99.90;;;;;;5045739;28;20544;-69
2022/04/26 11:31:39;;;;;;;4.80;4.40;;;16.30;99.90;;;;;;5030499;28;20453;-69
2022/04/26 11:34:47;;;;;;;5.60;5.10;;;16.40;99.90;;;;;;5041918;28;20502;-70
2022/04/26 11:37:45;;;;;;;5.87;5.30;;;16.60;99.90;;;;;;5049194;28;20453;-68
2022/04/26 11:40:36;;;;;;;6.03;5.53;;;16.50;99.90;;;;;;5042944;28;20474;-68
2022/04/26 11:43:27;;;;;;;5.50;5.10;;;16.40;99.90;;;;;;5043838;28;20846;-76
2022/04/26 11:46:15;;;;;;;6.00;5.50;;;16.30;99.90;;;;;;5046296;28;20477;-68
2022/04/26 11:49:04;;;;;;;5.53;5.03;;;16.20;99.90;;;;;;5036702;28;20478;-68
2022/04/26 11:52:00;;;;;;;6.30;5.70;;;16.20;99.90;;;;;;5040316;28;20453;-68
2022/04/26 11:54:49;;;;;;;6.53;4.90;;;16.30;99.90;;;;;;5038997;28;20996;-69
2022/04/26 11:57:37;;;;;;;5.17;4.77;;;16.30;99.90;;;;;;5029721;28;20462;-68
2022/04/26 12:00:26;;;;;;;5.73;5.17;;;16.30;99.90;;;;;;5037623;28;20605;-69
2022/04/26 12:03:14;;;;;;;5.40;4.90;;;16.30;99.90;;;;;;5040677;28;20852;-69
2022/04/26 12:06:04;;;;;;;4.80;4.40;;;16.50;99.90;;;;;;5047607;28;20465;-69
2022/04/26 12:08:56;;;;;;;5.63;5.13;;;16.70;99.90;;;;;;5044982;28;20593;-68
2022/04/26 12:11:59;;;;;;;5.00;4.60;;;16.90;99.90;;;;;;5039287;28;21182;-68
2022/04/26 12:14:50;;;;;;;5.90;5.40;;;17.10;99.90;;;;;;5043171;28;20473;-68
2022/04/26 12:17:38;;;;;;;5.00;4.60;;;17.20;99.90;;;;;;5040505;28;20459;-68
2022/04/26 12:20:26;;;;;;;5.60;5.10;;;17.20;99.90;;;;;;5038087;28;20468;-68
2022/04/26 12:23:21;;;;;;;5.97;5.47;;;17.30;99.90;;;;;;5032460;28;20489;-68
2022/04/26 12:26:10;;;;;;;4.90;4.50;;;17.30;99.90;;;;;;5039066;28;20572;-67
2022/04/26 12:28:59;;;;;;;6.90;5.27;;;17.30;99.90;;;;;;5041357;28;20466;-68
2022/04/26 12:31:49;;;;;;;5.20;4.70;;;17.40;99.90;;;;;;5034670;28;20561;-68
2022/04/26 12:34:46;;;;;;;5.50;4.50;;;17.50;99.90;;;;;;5046182;28;20690;-68
2022/04/26 12:37:34;;;;;;;4.33;3.93;;;17.70;99.90;;;;;;5036699;28;20458;-68
2022/04/26 12:40:23;;;;;;;4.83;4.50;;;18.00;99.90;;;;;;5045644;28;20469;-68
2022/04/26 12:43:28;;;;;;;4.33;4.03;;;18.20;99.90;;;;;;5044074;28;20606;-68
2022/04/26 12:46:17;;;;;;;6.50;5.20;;;18.30;99.90;;;;;;5038876;28;20488;-68
2022/04/26 12:52:11;;;;;;;5.50;4.97;;;18.60;99.90;;;;;;5043910;28;20450;-69
2022/04/26 12:55:00;;;;;;;6.30;5.80;;;18.50;99.90;;;;;;5045801;28;20455;-69
2022/04/26 12:57:49;;;;;;;5.30;4.80;;;18.40;99.90;;;;;;5047140;28;20461;-68
2022/04/26 13:00:40;;;;;;;5.43;5.03;;;18.20;99.90;;;;;;5039118;28;20524;-68
2022/04/26 13:03:29;;;;;;;5.60;5.10;;;18.00;99.90;;;;;;5036558;28;20502;-75
2022/04/26 13:06:19;;;;;;;5.10;4.70;;;17.80;99.90;;;;;;5042935;28;20478;-75
2022/04/26 13:09:28;;;;;;;7.33;4.50;;;17.70;99.90;;;;;;5037164;28;20474;-77
2022/04/26 13:12:17;;;;;;;6.33;4.63;;;17.60;99.90;;;;;;5043124;28;21089;-75
2022/04/26 13:15:08;;;;;;;4.80;4.40;;;17.80;99.90;;;;;;5039313;28;20637;-72
2022/04/26 13:17:57;;;;;;;4.80;4.30;;;18.10;99.90;;;;;;5044588;28;20461;-74
2022/04/26 13:20:47;;;;;;;5.30;4.90;;;18.20;99.90;;;;;;5045979;28;22205;-74
2022/04/26 13:23:37;;;;;;;6.40;5.17;;;18.10;99.90;;;;;;5046497;28;20511;-73
2022/04/26 13:26:25;;;;;;;5.57;5.07;;;17.90;99.90;;;;;;5046847;28;20470;-73
2022/04/26 13:29:13;;;;;;;5.13;4.63;;;17.80;99.90;;;;;;5042899;28;20578;-72
2022/04/26 13:32:02;;;;;;;5.03;4.30;;;17.70;99.90;;;;;;5038361;28;20463;-68
2022/04/26 13:34:51;;;;;;;4.93;4.53;;;18.00;99.90;;;;;;5042624;28;20909;-76
2022/04/26 13:37:43;;;;;;;5.23;4.83;;;18.10;99.90;;;;;;5039159;28;20560;-75
2022/04/26 13:40:32;;;;;;;5.30;4.80;;;17.90;99.90;;;;;;5037117;28;20482;-76
2022/04/26 13:43:23;;;;;;;6.00;5.50;;;17.80;99.90;;;;;;5041917;28;20493;-76
2022/04/26 13:46:32;;;;;;;6.03;5.43;;;17.70;99.90;;;;;;5039574;28;21453;-75
2022/04/26 13:49:20;;;;;;;5.37;4.97;;;17.40;99.90;;;;;;5033380;28;22444;-76
2022/04/26 13:52:09;;;;;;;6.00;5.30;;;17.30;99.90;;;;;;5037800;28;21187;-76
2022/04/26 13:54:59;;;;;;;5.03;4.63;;;17.20;99.90;;;;;;5036891;28;20505;-76
2022/04/26 13:57:47;;;;;;;5.30;4.90;;;17.30;99.90;;;;;;5040564;28;20457;-76
2022/04/26 14:00:36;;;;;;;5.87;5.37;;;17.30;99.90;;;;;;5038331;28;20481;-75
2022/04/26 14:03:27;;;;;;;5.00;4.60;;;17.40;99.90;;;;;;5036396;28;20486;-75
2022/04/26 14:06:18;;;;;;;5.83;5.33;;;17.40;99.90;;;;;;5040595;28;20483;-69
2022/04/26 14:09:06;;;;;;;5.10;4.70;;;17.60;99.90;;;;;;5036484;28;20799;-69
2022/04/26 14:11:56;;;;;;;5.63;5.13;;;18.10;99.90;;;;;;5038089;28;20505;-77
2022/04/26 14:24:04;;;;;;;6.60;6.10;;;17.90;99.90;;;;;;5037169;28;20574;-69
2022/04/26 14:26:53;;;;;;;6.40;5.90;;;17.70;99.90;;;;;;5042985;28;20506;-69
2022/04/26 14:29:42;;;;;;;5.63;5.10;;;17.50;99.90;;;;;;5040312;28;20538;-69
2022/04/26 14:32:30;;;;;;;6.40;5.63;;;17.40;99.90;;;;;;5044309;28;20470;-69
2022/04/26 14:35:18;;;;;;;5.70;5.20;;;17.60;99.90;;;;;;5045377;28;20954;-69
2022/04/26 14:38:13;;;;;;;6.03;5.53;;;17.60;99.90;;;;;;5045731;28;20454;-68
2022/04/26 14:41:01;;;;;;;6.10;5.50;;;17.50;99.90;;;;;;5042500;28;20473;-69
2022/04/26 14:43:49;;;;;;;5.50;5.00;;;17.40;99.90;;;;;;5044793;28;20473;-69
2022/04/26 14:46:38;;;;;;;5.90;5.30;;;17.30;99.90;;;;;;5033574;28;20574;-69
2022/04/26 14:49:27;;;;;;;5.70;5.30;;;17.30;99.90;;;;;;5036465;28;21646;-69
2022/04/26 14:52:21;;;;;;;6.33;5.73;;;17.30;99.90;;;;;;5038027;28;20463;-69
2022/04/26 14:55:23;;;;;;;6.50;5.80;;;17.30;99.90;;;;;;5033472;28;20491;-69
2022/04/26 14:58:14;;;;;;;6.00;5.43;;;17.40;99.90;;;;;;5040594;28;20493;-69
2022/04/26 15:01:03;;;;;;;4.67;4.33;;;17.40;99.90;;;;;;5042465;28;20553;-69
2022/04/26 15:03:52;;;;;;;4.77;4.40;;;17.60;99.90;;;;;;5033887;28;20477;-70
2022/04/26 15:06:41;;;;;;;4.23;3.93;;;17.70;99.90;;;;;;5045720;28;20885;-69
2022/04/26 15:09:44;;;;;;;5.00;4.60;;;17.80;99.90;;;;;;5040250;28;20905;-69
2022/04/26 15:18:44;;;;;;;4.67;4.27;;;18.00;99.90;;;;;;5034024;28;20464;-69
2022/04/26 15:21:34;;;;;;;5.10;4.70;;;18.00;99.90;;;;;;5041340;28;20603;-69
2022/04/26 15:24:22;;;;;;;4.57;4.13;;;17.90;99.90;;;;;;5031211;28;20474;-70
2022/04/26 15:27:10;;;;;;;4.80;4.40;;;17.70;99.90;;;;;;5042887;28;20521;-69
2022/04/26 15:29:59;;;;;;;5.50;5.00;;;17.70;99.90;;;;;;5043139;28;20569;-69
2022/04/26 15:32:47;;;;;;;5.57;5.07;;;17.70;99.50;;;;;;5045211;28;21060;-69
2022/04/26 15:35:36;;;;;;;6.83;6.30;;;17.50;99.90;;;;;;5035998;28;20694;-68
2022/04/26 15:38:27;;;;;;;6.00;5.43;;;17.30;99.90;;;;;;5043402;28;20451;-69
2022/04/26 15:41:16;;;;;;;6.00;5.50;;;17.10;99.90;;;;;;5034829;28;20494;-68
2022/04/26 15:44:05;;;;;;;7.80;5.77;;;16.90;99.90;;;;;;5042285;28;20527;-69
2022/04/26 15:47:00;;;;;;;6.17;5.60;;;16.80;99.90;;;;;;5046956;28;20522;-68
2022/04/26 15:49:49;;;;;;;4.00;3.70;;;16.80;99.90;;;;;;5040218;28;20471;-69
2022/04/26 15:52:38;;;;;;;4.67;4.27;;;16.90;99.20;;;;;;5037626;28;20474;-68
2022/04/26 15:55:28;;;;;;;4.63;4.23;;;17.00;98.40;;;;;;5039448;28;20477;-69
2022/04/26 15:58:16;;;;;;;5.40;4.30;;;17.00;98.30;;;;;;5042081;28;21350;-69
2022/04/26 16:01:04;;;;;;;3.93;3.63;;;17.00;99.30;;;;;;5043110;28;20466;-70
2022/04/26 16:03:53;;;;;;;5.00;3.70;;;17.00;98.90;;;;;;5042972;28;20497;-70
2022/04/26 16:06:42;;;;;;;6.40;4.33;;;17.20;99.90;;;;;;5048433;28;20482;-71
2022/04/26 16:22:03;;;;;;;4.00;3.70;;;17.50;95.50;;;;;;5050577;28;20463;-67
2022/04/26 16:24:52;;;;;;;4.00;3.70;;;17.50;96.70;;;;;;5040761;28;20518;-68
2022/04/26 16:27:42;;;;;;;3.20;3.00;;;17.60;96.20;;;;;;5046544;28;20527;-68
2022/04/26 16:30:32;;;;;;;4.50;3.80;;;17.70;95.50;;;;;;5046515;28;20478;-68
2022/04/26 16:33:20;;;;;;;5.50;5.00;;;17.70;98.00;;;;;;5046632;28;20478;-69
2022/04/26 16:36:12;;;;;;;5.07;4.67;;;17.70;99.90;;;;;;5049074;28;21110;-68
2022/04/26 16:39:00;;;;;;;5.50;5.00;;;17.70;99.90;;;;;;5047936;28;20895;-69
2022/04/26 16:41:48;;;;;;;5.57;5.07;;;17.70;99.90;;;;;;5048969;28;20486;-69
2022/04/26 16:44:37;;;;;;;5.47;5.03;;;17.70;99.90;;;;;;5050125;28;20486;-69
2022/04/26 16:47:26;;;;;;;5.87;4.63;;;17.80;99.90;;;;;;5050960;28;21196;-69
2022/04/26 16:50:14;;;;;;;5.83;5.33;;;17.70;99.90;;;;;;5046485;28;20612;-70
2022/04/26 16:53:03;;;;;;;5.17;4.77;;;17.80;99.90;;;;;;5043382;28;20524;-68
2022/04/26 16:55:52;;;;;;;7.90;5.50;;;17.70;99.90;;;;;;5051803;28;20489;-70
2022/04/26 16:58:41;;;;;;;7.67;5.80;;;17.70;99.90;;;;;;5044902;28;20524;-69
2022/04/26 17:01:30;;;;;;;6.10;5.60;;;17.50;99.90;;;;;;5044367;28;20493;-69
2022/04/26 17:04:21;;;;;;;6.50;5.90;;;17.40;99.90;;;;;;5020259;28;20520;-68
2022/04/26 17:07:10;;;;;;;7.10;6.50;;;17.20;99.90;;;;;;5040321;28;20487;-68
2022/04/26 17:09:58;;;;;;;6.10;5.60;;;17.10;99.90;;;;;;5045195;28;20479;-68
2022/04/26 17:12:48;;;;;;;8.40;6.37;;;16.90;99.90;;;;;;5040822;28;20470;-68
2022/04/26 17:15:37;;;;;;;7.10;6.40;;;16.80;99.90;;;;;;5038925;28;20536;-69
2022/04/26 17:18:26;;;;;;;6.40;5.80;;;16.60;99.90;;;;;;5033957;28;20549;-69
2022/04/26 17:21:14;;;;;;;7.50;6.10;;;16.50;99.90;;;;;;5035676;28;21048;-70
2022/04/26 17:24:04;;;;;;;8.03;7.23;;;16.30;99.90;;;;;;5030854;28;21090;-69
2022/04/26 17:26:52;;;;;;;7.10;5.83;;;16.10;99.90;;;;;;5030790;28;20470;-70
2022/04/26 17:29:41;;;;;;;5.97;5.43;;;16.10;99.90;;;;;;5042244;28;20509;-69
2022/04/26 17:32:29;;;;;;;6.40;5.73;;;16.00;99.90;;;;;;5040276;28;20939;-69
2022/04/26 17:35:18;;;;;;;5.90;5.40;;;15.90;99.90;;;;;;5033726;28;20454;-74
2022/04/26 17:38:07;;;;;;;6.23;5.57;;;15.80;99.90;;;;;;5033687;28;22203;-74
2022/04/26 17:40:55;;;;;;;5.30;4.80;;;15.70;99.90;;;;;;5029902;28;20483;-74
2022/04/26 17:43:43;;;;;;;5.93;5.40;;;15.60;99.90;;;;;;5047617;28;20489;-73
2022/04/26 17:46:31;;;;;;;5.63;5.13;;;15.50;99.90;;;;;;5047108;28;20490;-75
2022/04/26 17:49:20;;;;;;;5.60;5.10;;;15.40;99.90;;;;;;5034117;28;22546;-74
2022/04/26 17:52:10;;;;;;;5.43;4.87;;;15.40;99.90;;;;;;5047908;28;20470;-69
2022/04/26 17:58:04;;;;;;;5.40;5.00;;;15.20;99.90;;;;;;5039522;28;20438;-69
2022/04/26 18:00:53;;;;;;;5.30;4.80;;;15.10;99.90;;;;;;5021211;28;20534;-67
2022/04/26 18:03:42;;;;;;;6.47;5.23;;;14.90;99.90;;;;;;5039265;28;20596;-67
2022/04/26 18:06:31;;;;;;;5.60;5.17;;;14.80;99.90;;;;;;5047205;28;20878;-68
2022/04/26 18:09:20;;;;;;;5.23;4.80;;;14.70;99.90;;;;;;5031697;28;20474;-68
2022/04/26 18:12:11;;;;;;;5.53;4.90;;;14.70;99.90;;;;;;5044150;28;20450;-68
2022/04/26 18:14:59;;;;;;;6.07;4.97;;;14.70;99.90;;;;;;5043501;28;20495;-68
2022/04/26 18:17:47;;;;;;;4.87;4.47;;;14.60;99.90;;;;;;5051636;28;20446;-68
2022/04/26 18:20:35;;;;;;;6.73;5.40;;;14.50;99.90;;;;;;5051951;28;20577;-68
2022/04/26 18:23:23;;;;;;;6.20;5.00;;;14.40;99.90;;;;;;5049673;28;20486;-68
2022/04/26 18:26:13;;;;;;;5.50;5.00;;;14.40;99.90;;;;;;5051199;28;20536;-68
2022/04/26 18:29:01;;;;;;;5.87;4.73;;;14.40;99.90;;;;;;5054493;28;20476;-69
2022/04/26 18:31:51;;;;;;;6.70;4.40;;;14.30;99.90;;;;;;5052410;28;20536;-67
2022/04/26 18:34:42;;;;;;;5.63;5.10;;;14.20;99.90;;;;;;5048439;28;21267;-68
2022/04/26 18:37:30;;;;;;;4.43;4.03;;;14.10;99.90;;;;;;5047372;28;20553;-68
2022/04/26 18:40:20;;;;;;;4.80;4.40;;;14.00;99.90;;;;;;5053981;28;21136;-68
2022/04/26 18:43:09;;;;;;;4.90;4.40;;;14.00;99.90;;;;;;5050535;28;20608;-68
2022/04/26 18:45:58;;;;;;;5.30;4.50;;;13.90;99.90;;;;;;5053038;28;20566;-68
2022/04/26 18:48:47;;;;;;;5.87;4.87;;;13.80;99.90;;;;;;5050520;28;20471;-68
2022/04/26 18:51:35;;;;;;;5.80;5.33;;;13.70;99.90;;;;;;5050013;28;20553;-67
2022/04/26 18:54:25;;;;;;;5.40;4.93;;;13.60;99.90;;;;;;5046022;28;20569;-68
2022/04/26 18:57:14;;;;;;;5.37;4.87;;;13.60;99.90;;;;;;5051642;28;20908;-68
2022/04/26 19:00:04;;;;;;;5.73;5.13;;;13.50;99.90;;;;;;5044640;28;20608;-68
2022/04/26 19:02:52;;;;;;;5.57;5.17;;;13.30;99.90;;;;;;5049199;28;20505;-68
2022/04/26 19:05:41;;;;;;;6.40;5.50;;;13.30;99.90;;;;;;5047111;28;20462;-68
2022/04/26 19:08:30;;;;;;;8.33;5.50;;;13.20;99.90;;;;;;5042244;28;20482;-67